createdAt,value
2018-09-11T04:00:36.967Z,987.89
2018-09-11T04:01:36.961Z,987.93
2018-09-11T04:02:36.954Z,987.92
2018-09-11T04:03:36.933Z,987.90
2018-09-11T04:04:36.907Z,987.95
2018-09-11T04:05:37.010Z,987.90
2018-09-11T04:06:36.902Z,987.89
2018-09-11T04:07:36.883Z,987.86
2018-09-11T04:08:36.876Z,987.85
2018-09-11T04:09:36.853Z,987.86
2018-09-11T04:10:36.843Z,987.87
2018-09-11T04:11:36.839Z,987.88
2018-09-11T04:12:36.816Z,987.91
2018-09-11T04:13:36.818Z,987.91
2018-09-11T04:14:36.800Z,987.93
2018-09-11T04:15:36.782Z,987.92
2018-09-11T04:16:36.777Z,987.95
2018-09-11T04:17:36.772Z,987.93
2018-09-11T04:18:36.763Z,987.93
2018-09-11T04:19:36.737Z,987.95
2018-09-11T04:20:36.724Z,987.96
2018-09-11T04:21:36.716Z,987.96
2018-09-11T04:22:36.707Z,987.93
2018-09-11T04:23:36.701Z,987.95
2018-09-11T04:24:36.682Z,987.96
2018-09-11T04:25:36.780Z,988.00
2018-09-11T04:26:36.660Z,987.96
2018-09-11T04:27:36.649Z,988.02
2018-09-11T04:28:36.650Z,988.06
2018-09-11T04:29:36.624Z,988.04
2018-09-11T04:30:36.613Z,987.99
2018-09-11T04:31:36.603Z,988.00
2018-09-11T04:32:36.598Z,988.02
2018-09-11T04:33:36.593Z,987.99
2018-09-11T04:34:36.567Z,987.98
2018-09-11T04:35:36.557Z,987.98
2018-09-11T04:36:36.546Z,987.99
2018-09-11T04:37:36.531Z,988.00
2018-09-11T04:38:36.539Z,988.03
2018-09-11T04:39:36.512Z,987.94
2018-09-11T04:40:36.498Z,987.96
2018-09-11T04:41:36.491Z,987.94
2018-09-11T04:42:36.480Z,987.94
2018-09-11T04:43:36.477Z,988.02
2018-09-11T04:44:36.457Z,987.99
2018-09-11T04:45:36.444Z,988.02
2018-09-11T04:46:36.431Z,988.02
2018-09-11T04:47:36.426Z,988.00
2018-09-11T04:48:36.426Z,988.05
2018-09-11T04:49:36.402Z,988.02
2018-09-11T04:50:36.390Z,988.02
2018-09-11T04:51:36.373Z,988.06
2018-09-11T04:52:36.363Z,988.11
2018-09-11T04:53:36.366Z,988.09
2018-09-11T04:54:36.339Z,988.11
2018-09-11T04:55:36.334Z,988.06
2018-09-11T04:56:36.317Z,988.12
2018-09-11T04:57:36.306Z,988.11
2018-09-11T04:58:36.340Z,988.13
2018-09-11T04:59:36.292Z,988.16
2018-09-11T05:00:36.271Z,988.17
2018-09-11T05:01:36.261Z,988.19
2018-09-11T05:02:36.281Z,988.19
2018-09-11T05:03:36.249Z,988.20
2018-09-11T05:04:36.231Z,988.22
2018-09-11T05:05:36.216Z,988.19
2018-09-11T05:06:36.204Z,988.20
2018-09-11T05:07:36.204Z,988.20
2018-09-11T05:08:36.197Z,988.26
2018-09-11T05:09:36.177Z,988.27
2018-09-11T05:10:36.162Z,988.29
2018-09-11T05:11:36.150Z,988.30
2018-09-11T05:12:36.136Z,988.28
2018-09-11T05:13:36.142Z,988.30
2018-09-11T05:14:36.120Z,988.32
2018-09-11T05:15:36.102Z,988.32
2018-09-11T05:16:36.095Z,988.30
2018-09-11T05:17:36.080Z,988.30
2018-09-11T05:18:36.077Z,988.30
2018-09-11T05:19:36.057Z,988.31
2018-09-11T05:20:36.050Z,988.34
2018-09-11T05:21:36.045Z,988.32
2018-09-11T05:22:36.024Z,988.40
2018-09-11T05:23:36.026Z,988.42
2018-09-11T05:24:36.002Z,988.43
2018-09-11T05:25:35.993Z,988.45
2018-09-11T05:26:35.977Z,988.46
2018-09-11T05:27:36.011Z,988.42
2018-09-11T05:28:35.990Z,988.44
2018-09-11T05:29:35.945Z,988.42
2018-09-11T05:30:35.933Z,988.51
2018-09-11T05:31:35.922Z,988.45
2018-09-11T05:32:35.915Z,988.49
2018-09-11T05:33:35.904Z,988.49
2018-09-11T05:34:35.902Z,988.53
2018-09-11T05:35:35.879Z,988.56
2018-09-11T05:36:35.871Z,988.57
2018-09-11T05:37:35.854Z,988.55
2018-09-11T05:38:35.843Z,988.54
2018-09-11T05:39:35.841Z,988.55
2018-09-11T05:40:35.837Z,988.52
2018-09-11T05:41:35.816Z,988.56
2018-09-11T05:42:35.797Z,988.56
2018-09-11T05:43:35.786Z,988.56
2018-09-11T05:44:35.785Z,988.55
2018-09-11T05:45:35.763Z,988.58
2018-09-11T05:46:35.756Z,988.58
2018-09-11T05:47:35.740Z,988.56
2018-09-11T05:48:35.730Z,988.56
2018-09-11T05:49:35.734Z,988.57
2018-09-11T05:50:35.712Z,988.56
2018-09-11T05:51:35.697Z,988.55
2018-09-11T05:52:35.725Z,988.55
2018-09-11T05:53:35.672Z,988.59
2018-09-11T05:54:35.673Z,988.58
2018-09-11T05:55:35.649Z,988.62
2018-09-11T05:56:35.639Z,988.65
2018-09-11T05:57:35.628Z,988.66
2018-09-11T05:58:35.619Z,988.61
2018-09-11T05:59:35.618Z,988.64
2018-09-11T06:00:35.592Z,988.67
2018-09-11T06:01:35.584Z,988.65
2018-09-11T06:02:35.572Z,988.68
2018-09-11T06:03:35.561Z,988.69
2018-09-11T06:04:35.559Z,988.70
2018-09-11T06:05:35.563Z,988.70
2018-09-11T06:06:35.524Z,988.68
2018-09-11T06:07:35.517Z,988.66
2018-09-11T06:08:35.501Z,988.69
2018-09-11T06:09:35.505Z,988.72
2018-09-11T06:10:35.480Z,988.72
2018-09-11T06:11:35.472Z,988.73
2018-09-11T06:12:35.456Z,988.74
2018-09-11T06:13:35.453Z,988.68
2018-09-11T06:14:35.449Z,988.69
2018-09-11T06:15:35.422Z,988.70
2018-09-11T06:16:35.412Z,988.68
2018-09-11T06:17:35.404Z,988.70
2018-09-11T06:18:35.389Z,988.67
2018-09-11T06:19:35.388Z,988.67
2018-09-11T06:20:35.367Z,988.60
2018-09-11T06:21:35.353Z,988.59
2018-09-11T06:22:35.342Z,988.58
2018-09-11T06:23:35.332Z,988.62
2018-09-11T06:24:35.335Z,988.58
2018-09-11T06:25:35.320Z,988.56
2018-09-11T06:26:35.298Z,988.55
2018-09-11T06:27:35.288Z,988.55
2018-09-11T06:28:35.275Z,988.49
2018-09-11T06:29:35.284Z,988.51
2018-09-11T06:30:35.254Z,988.48
2018-09-11T06:31:35.240Z,988.45
2018-09-11T06:32:35.273Z,988.44
2018-09-11T06:33:35.229Z,988.46
2018-09-11T06:34:35.248Z,988.43
2018-09-11T06:35:35.274Z,988.43
2018-09-11T06:36:35.187Z,988.41
2018-09-11T06:37:35.176Z,988.37
2018-09-11T06:38:35.161Z,988.28
2018-09-11T06:39:35.164Z,988.31
2018-09-11T06:40:35.172Z,988.26
2018-09-11T06:41:35.130Z,988.29
2018-09-11T06:42:35.121Z,988.28
2018-09-11T06:43:35.115Z,988.26
2018-09-11T06:44:35.162Z,988.26
2018-09-11T06:45:35.083Z,988.22
2018-09-11T06:46:35.072Z,988.18
2018-09-11T06:47:35.060Z,988.22
2018-09-11T06:48:35.053Z,988.20
2018-09-11T06:49:35.055Z,988.23
2018-09-11T06:50:35.032Z,988.19
2018-09-11T06:51:35.015Z,988.23
2018-09-11T06:52:35.006Z,988.23
2018-09-11T06:53:34.993Z,988.19
2018-09-11T06:54:35.013Z,988.18
2018-09-11T06:55:34.974Z,988.22
2018-09-11T06:56:34.959Z,988.24
2018-09-11T06:57:34.965Z,988.23
2018-09-11T06:58:34.937Z,988.16
2018-09-11T06:59:34.939Z,988.16
2018-09-11T07:00:34.977Z,988.19
2018-09-11T07:01:34.909Z,988.19
2018-09-11T07:02:34.893Z,988.20
2018-09-11T07:03:34.882Z,988.17
2018-09-11T07:04:34.878Z,988.19
2018-09-11T07:05:34.859Z,988.19
2018-09-11T07:06:34.846Z,988.22
2018-09-11T07:07:34.833Z,988.18
2018-09-11T07:08:34.832Z,988.25
2018-09-11T07:09:34.822Z,988.22
2018-09-11T07:10:34.799Z,988.14
2018-09-11T07:11:34.793Z,988.14
2018-09-11T07:12:34.779Z,988.14
2018-09-11T07:13:34.769Z,988.11
2018-09-11T07:14:34.849Z,988.16
2018-09-11T07:15:34.744Z,988.08
2018-09-11T07:16:34.735Z,988.07
2018-09-11T07:17:34.759Z,988.07
2018-09-11T07:18:34.712Z,988.10
2018-09-11T07:19:34.744Z,988.07
2018-09-11T07:20:34.691Z,988.11
2018-09-11T07:21:34.677Z,988.06
2018-09-11T07:22:34.673Z,988.06
2018-09-11T07:23:34.658Z,988.15
2018-09-11T07:24:34.664Z,988.05
2018-09-11T07:25:34.636Z,988.13
2018-09-11T07:26:34.625Z,988.11
2018-09-11T07:27:34.609Z,988.13
2018-09-11T07:28:34.602Z,988.13
2018-09-11T07:29:34.590Z,988.13
2018-09-11T07:30:34.598Z,988.14
2018-09-11T07:31:34.564Z,988.15
2018-09-11T07:32:34.580Z,988.11
2018-09-11T07:33:34.543Z,988.10
2018-09-11T07:34:34.538Z,988.11
2018-09-11T07:35:34.538Z,988.08
2018-09-11T07:36:34.508Z,988.13
2018-09-11T07:37:34.500Z,988.12
2018-09-11T07:38:34.487Z,988.12
2018-09-11T07:39:34.474Z,988.17
2018-09-11T07:40:34.483Z,988.10
2018-09-11T07:41:34.453Z,988.13
2018-09-11T07:42:34.441Z,988.12
2018-09-11T07:43:34.429Z,988.09
2018-09-11T07:44:34.419Z,988.08
2018-09-11T07:45:34.544Z,988.10
2018-09-11T07:46:34.394Z,988.11
2018-09-11T07:47:34.398Z,988.05
2018-09-11T07:48:34.372Z,988.04
2018-09-11T07:49:34.364Z,988.08
2018-09-11T07:50:34.364Z,988.00
2018-09-11T07:51:34.339Z,988.06
2018-09-11T07:52:34.392Z,988.06
2018-09-11T07:53:34.320Z,988.05
2018-09-11T07:54:34.305Z,988.00
2018-09-11T07:55:34.309Z,988.09
2018-09-11T07:56:34.288Z,987.95
2018-09-11T07:57:34.297Z,987.94
2018-09-11T07:58:34.262Z,987.97
2018-09-11T07:59:34.248Z,987.95
2018-09-11T08:00:34.273Z,987.98
2018-09-11T08:01:34.230Z,987.95
2018-09-11T08:02:34.215Z,987.89
2018-09-11T08:03:34.206Z,987.87
2018-09-11T08:04:34.200Z,987.99
2018-09-11T08:05:34.199Z,987.89
2018-09-11T08:06:34.172Z,987.96
2018-09-11T08:07:34.162Z,987.94
2018-09-11T08:08:34.149Z,988.01
2018-09-11T08:09:34.167Z,988.02
2018-09-11T08:10:34.137Z,987.94
2018-09-11T08:11:34.116Z,987.94
2018-09-11T08:12:34.113Z,988.02
2018-09-11T08:13:34.097Z,987.91
2018-09-11T08:14:34.080Z,987.85
2018-09-11T08:15:34.088Z,987.93
2018-09-11T08:16:34.092Z,987.82
2018-09-11T08:17:34.049Z,987.96
2018-09-11T08:18:34.035Z,987.94
2018-09-11T08:19:34.026Z,987.87
2018-09-11T08:20:34.033Z,987.94
2018-09-11T08:21:34.006Z,987.94
2018-09-11T08:22:33.993Z,987.91
2018-09-11T08:23:33.981Z,987.94
2018-09-11T08:24:33.969Z,987.95
2018-09-11T08:25:33.969Z,987.97
2018-09-11T08:26:33.948Z,987.88
2018-09-11T08:27:33.937Z,988.00
2018-09-11T08:28:33.924Z,988.00
2018-09-11T08:29:33.915Z,987.95
2018-09-11T08:30:33.911Z,988.02
2018-09-11T08:31:33.898Z,987.94
2018-09-11T08:32:33.882Z,987.99
2018-09-11T08:33:33.868Z,988.05
2018-09-11T08:34:33.857Z,988.01
2018-09-11T08:35:33.857Z,988.01
2018-09-11T08:36:33.835Z,988.06
2018-09-11T08:37:33.824Z,987.99
2018-09-11T08:38:33.812Z,987.99
2018-09-11T08:39:33.811Z,987.97
2018-09-11T08:40:33.806Z,987.93
2018-09-11T08:41:33.780Z,988.02
2018-09-11T08:42:33.774Z,987.96
2018-09-11T08:43:33.759Z,987.99
2018-09-11T08:44:33.749Z,987.99
2018-09-11T08:45:33.750Z,987.91
2018-09-11T08:46:33.739Z,987.85
2018-09-11T08:47:33.711Z,987.86
2018-09-11T08:48:33.700Z,987.87
2018-09-11T08:49:33.692Z,987.85
2018-09-11T08:50:33.695Z,987.82
2018-09-11T08:51:33.667Z,987.88
2018-09-11T08:52:33.718Z,987.84
2018-09-11T08:53:33.646Z,987.92
2018-09-11T08:54:33.633Z,987.97
2018-09-11T08:55:33.635Z,987.92
2018-09-11T08:56:33.628Z,987.92
2018-09-11T08:57:33.601Z,987.92
2018-09-11T08:58:33.652Z,987.93
2018-09-11T08:59:33.578Z,987.95
2018-09-11T09:00:33.578Z,987.98
2018-09-11T09:01:33.555Z,987.91
2018-09-11T09:02:33.544Z,987.90
2018-09-11T09:03:33.535Z,987.92
2018-09-11T09:04:33.522Z,987.99
2018-09-11T09:05:33.524Z,987.97
2018-09-11T09:06:33.499Z,987.95
2018-09-11T09:07:33.489Z,987.98
2018-09-11T09:08:33.478Z,988.06
2018-09-11T09:09:33.468Z,987.94
2018-09-11T09:10:33.471Z,987.98
2018-09-11T09:11:33.447Z,987.95
2018-09-11T09:12:33.436Z,987.94
2018-09-11T09:13:33.422Z,987.98
2018-09-11T09:14:33.412Z,987.98
2018-09-11T09:15:33.442Z,987.91
2018-09-11T09:16:33.393Z,987.95
2018-09-11T09:17:33.378Z,987.91
2018-09-11T09:18:33.366Z,987.88
2018-09-11T09:19:33.353Z,987.86
2018-09-11T09:20:33.354Z,987.90
2018-09-11T09:21:33.330Z,987.90
2018-09-11T09:22:33.324Z,987.90
2018-09-11T09:23:33.310Z,987.90
2018-09-11T09:24:33.299Z,987.95
2018-09-11T09:25:33.301Z,987.95
2018-09-11T09:26:33.275Z,987.97
2018-09-11T09:27:33.373Z,988.01
2018-09-11T09:28:33.253Z,988.00
2018-09-11T09:29:33.242Z,987.97
2018-09-11T09:30:33.243Z,987.96
2018-09-11T09:31:33.234Z,988.00
2018-09-11T09:32:33.211Z,987.97
2018-09-11T09:33:33.199Z,987.93
2018-09-11T09:34:33.187Z,987.88
2018-09-11T09:35:33.175Z,987.87
2018-09-11T09:36:33.192Z,987.82
2018-09-11T09:37:33.154Z,987.88
2018-09-11T09:38:33.140Z,987.90
2018-09-11T09:39:33.135Z,987.87
2018-09-11T09:40:33.119Z,987.86
2018-09-11T09:41:33.125Z,987.90
2018-09-11T09:42:33.096Z,987.91
2018-09-11T09:43:33.086Z,987.90
2018-09-11T09:44:33.075Z,987.83
2018-09-11T09:45:33.063Z,987.91
2018-09-11T09:46:33.067Z,987.81
2018-09-11T09:47:33.044Z,987.85
2018-09-11T09:48:33.033Z,987.86
2018-09-11T09:49:33.018Z,987.71
2018-09-11T09:50:33.007Z,987.71
2018-09-11T09:51:33.009Z,987.79
2018-09-11T09:52:32.983Z,987.75
2018-09-11T09:53:32.973Z,987.86
2018-09-11T09:54:32.965Z,987.83
2018-09-11T09:55:32.952Z,987.84
2018-09-11T09:56:32.953Z,987.69
2018-09-11T09:57:32.931Z,987.79
2018-09-11T09:58:32.920Z,987.72
2018-09-11T09:59:32.911Z,987.85
2018-09-11T10:00:32.928Z,987.76
2018-09-11T10:01:32.894Z,987.77
2018-09-11T10:02:32.878Z,987.79
2018-09-11T10:03:32.871Z,987.76
2018-09-11T10:04:32.850Z,987.83
2018-09-11T10:05:32.840Z,987.78
2018-09-11T10:06:32.841Z,987.79
2018-09-11T10:07:32.822Z,987.80
2018-09-11T10:08:32.807Z,987.78
2018-09-11T10:09:32.794Z,987.70
2018-09-11T10:10:32.791Z,987.73
2018-09-11T10:11:32.781Z,987.67
2018-09-11T10:12:32.762Z,987.66
2018-09-11T10:13:32.749Z,987.63
2018-09-11T10:14:32.739Z,987.74
2018-09-11T10:15:32.732Z,987.61
2018-09-11T10:16:32.728Z,987.61
2018-09-11T10:17:32.761Z,987.64
2018-09-11T10:18:32.693Z,987.59
2018-09-11T10:19:32.683Z,987.57
2018-09-11T10:20:32.673Z,987.51
2018-09-11T10:21:32.677Z,987.50
2018-09-11T10:22:32.659Z,987.57
2018-09-11T10:23:32.637Z,987.53
2018-09-11T10:24:32.631Z,987.55
2018-09-11T10:25:32.619Z,987.58
2018-09-11T10:26:32.627Z,987.62
2018-09-11T10:27:32.598Z,987.57
2018-09-11T10:28:32.583Z,987.59
2018-09-11T10:29:32.571Z,987.60
2018-09-11T10:30:32.563Z,987.61
2018-09-11T10:31:32.562Z,987.64
2018-09-11T10:32:32.541Z,987.62
2018-09-11T10:33:32.525Z,987.60
2018-09-11T10:34:32.516Z,987.55
2018-09-11T10:35:32.514Z,987.62
2018-09-11T10:36:32.504Z,987.56
2018-09-11T10:37:32.487Z,987.61
2018-09-11T10:38:32.481Z,987.58
2018-09-11T10:39:32.586Z,987.59
2018-09-11T10:40:32.450Z,987.61
2018-09-11T10:41:32.449Z,987.48
2018-09-11T10:42:32.425Z,987.40
2018-09-11T10:43:32.419Z,987.45
2018-09-11T10:44:32.405Z,987.41
2018-09-11T10:45:32.395Z,987.40
2018-09-11T10:46:32.392Z,987.44
2018-09-11T10:47:32.370Z,987.43
2018-09-11T10:48:32.360Z,987.41
2018-09-11T10:49:32.349Z,987.33
2018-09-11T10:50:32.336Z,987.31
2018-09-11T10:51:32.338Z,987.38
2018-09-11T10:52:32.313Z,987.40
2018-09-11T10:53:32.311Z,987.36
2018-09-11T10:54:32.293Z,987.32
2018-09-11T10:55:32.281Z,987.43
2018-09-11T10:56:32.284Z,987.35
2018-09-11T10:57:32.265Z,987.36
2018-09-11T10:58:32.247Z,987.38
2018-09-11T10:59:32.236Z,987.37
2018-09-11T11:00:32.272Z,987.32
2018-09-11T11:01:32.222Z,987.32
2018-09-11T11:02:32.202Z,987.36
2018-09-11T11:03:32.191Z,987.32
2018-09-11T11:04:32.180Z,987.40
2018-09-11T11:05:32.169Z,987.31
2018-09-11T11:06:32.173Z,987.24
2018-09-11T11:07:32.148Z,987.38
2018-09-11T11:08:32.143Z,987.31
2018-09-11T11:09:32.126Z,987.22
2018-09-11T11:10:32.115Z,987.19
2018-09-11T11:11:32.148Z,987.22
2018-09-11T11:12:32.090Z,987.21
2018-09-11T11:13:32.085Z,987.14
2018-09-11T11:14:32.073Z,987.16
2018-09-11T11:15:32.057Z,987.16
2018-09-11T11:16:32.061Z,986.99
2018-09-11T11:17:32.034Z,987.03
2018-09-11T11:18:32.023Z,986.98
2018-09-11T11:19:32.013Z,986.92
2018-09-11T11:20:32.000Z,986.99
2018-09-11T11:21:32.000Z,986.87
2018-09-11T11:22:31.980Z,986.92
2018-09-11T11:23:31.969Z,986.90
2018-09-11T11:24:31.956Z,986.86
2018-09-11T11:25:31.946Z,986.87
2018-09-11T11:26:31.948Z,986.86
2018-09-11T11:27:31.925Z,986.82
2018-09-11T11:28:31.912Z,986.77
2018-09-11T11:29:31.900Z,986.80
2018-09-11T11:30:31.888Z,986.83
2018-09-11T11:31:31.893Z,986.79
2018-09-11T11:32:31.867Z,986.83
2018-09-11T11:33:31.858Z,986.94
2018-09-11T11:34:31.844Z,986.98
2018-09-11T11:35:31.835Z,986.83
2018-09-11T11:36:32.004Z,986.84
2018-09-11T11:37:31.824Z,986.94
2018-09-11T11:38:31.799Z,986.80
2018-09-11T11:39:31.793Z,986.79
2018-09-11T11:40:31.778Z,986.79
2018-09-11T11:41:31.770Z,986.75
2018-09-11T11:42:31.768Z,986.72
2018-09-11T11:43:31.744Z,986.78
2018-09-11T11:44:31.731Z,986.72
2018-09-11T11:45:31.721Z,986.66
2018-09-11T11:46:31.710Z,986.68
2018-09-11T11:47:31.712Z,986.68
2018-09-11T11:48:31.691Z,986.77
2018-09-11T11:49:31.700Z,986.86
2018-09-11T11:50:31.664Z,986.88
2018-09-11T11:51:31.654Z,986.87
2018-09-11T11:52:31.654Z,986.78
2018-09-11T11:53:31.631Z,986.74
2018-09-11T11:54:31.620Z,986.84
2018-09-11T11:55:31.674Z,986.77
2018-09-11T11:56:31.597Z,986.82
2018-09-11T11:57:31.598Z,986.85
2018-09-11T11:58:31.578Z,986.84
2018-09-11T11:59:31.565Z,986.81
2018-09-11T12:00:31.553Z,986.78
2018-09-11T12:01:31.640Z,986.98
2018-09-11T12:02:31.542Z,986.93
2018-09-11T12:03:31.518Z,987.00
2018-09-11T12:04:31.511Z,986.92
2018-09-11T12:05:31.498Z,986.93
2018-09-11T12:06:31.486Z,987.01
2018-09-11T12:07:31.490Z,986.90
2018-09-11T12:08:31.465Z,986.89
2018-09-11T12:09:31.455Z,986.87
2018-09-11T12:10:31.444Z,986.80
2018-09-11T12:11:31.435Z,986.82
2018-09-11T12:12:31.431Z,986.83
2018-09-11T12:13:31.407Z,986.84
2018-09-11T12:14:31.396Z,986.80
2018-09-11T12:15:31.387Z,986.84
2018-09-11T12:16:31.375Z,986.77
2018-09-11T12:17:31.373Z,986.72
2018-09-11T12:18:31.354Z,986.67
2018-09-11T12:19:31.341Z,986.71
2018-09-11T12:20:31.331Z,986.80
2018-09-11T12:21:31.328Z,986.74
2018-09-11T12:22:31.321Z,986.74
2018-09-11T12:23:31.298Z,986.77
2018-09-11T12:24:31.288Z,986.90
2018-09-11T12:25:31.315Z,986.83
2018-09-11T12:26:31.264Z,986.95
2018-09-11T12:27:31.266Z,986.92
2018-09-11T12:28:31.246Z,986.89
2018-09-11T12:29:31.233Z,986.85
2018-09-11T12:30:31.220Z,986.89
2018-09-11T12:31:31.207Z,986.92
2018-09-11T12:32:31.209Z,986.94
2018-09-11T12:33:31.191Z,986.98
2018-09-11T12:34:31.186Z,987.04
2018-09-11T12:35:31.164Z,987.01
2018-09-11T12:36:31.156Z,987.04
2018-09-11T12:37:31.158Z,987.01
2018-09-11T12:38:31.142Z,986.98
2018-09-11T12:39:31.121Z,987.01
2018-09-11T12:40:31.107Z,987.01
2018-09-11T12:41:31.098Z,986.94
2018-09-11T12:42:31.101Z,986.98
2018-09-11T12:43:31.073Z,987.01
2018-09-11T12:44:31.062Z,986.98
2018-09-11T12:45:31.054Z,986.94
2018-09-11T12:46:31.611Z,987.01
2018-09-11T12:47:31.476Z,987.01
2018-09-11T12:48:31.122Z,986.98
2018-09-11T12:49:31.006Z,987.06
2018-09-11T12:50:30.998Z,987.02
2018-09-11T12:51:30.983Z,986.96
2018-09-11T12:52:31.059Z,987.09
2018-09-11T12:53:30.967Z,987.04
2018-09-11T12:54:30.951Z,987.01
2018-09-11T12:55:30.940Z,986.97
2018-09-11T12:56:30.929Z,986.99
2018-09-11T12:57:30.930Z,986.94
2018-09-11T12:58:30.909Z,986.99
2018-09-11T12:59:30.896Z,986.97
2018-09-11T13:00:30.884Z,987.04
2018-09-11T13:01:30.875Z,987.01
2018-09-11T13:02:30.920Z,987.07
2018-09-11T13:03:30.851Z,987.10
2018-09-11T13:04:30.839Z,986.97
2018-09-11T13:05:30.935Z,986.99
2018-09-11T13:06:30.818Z,986.97
2018-09-11T13:07:30.818Z,987.06
2018-09-11T13:08:30.796Z,986.98
2018-09-11T13:09:30.842Z,986.93
2018-09-11T13:10:30.774Z,986.89
2018-09-11T13:11:30.763Z,986.91
2018-09-11T13:12:30.766Z,986.86
2018-09-11T13:13:30.741Z,986.85
2018-09-11T13:14:30.731Z,986.83
2018-09-11T13:15:30.717Z,986.84
2018-09-11T13:16:30.705Z,986.89
2018-09-11T13:17:30.708Z,986.87
2018-09-11T13:18:30.685Z,986.86
2018-09-11T13:19:30.672Z,986.84
2018-09-11T13:20:30.663Z,986.89
2018-09-11T13:21:30.651Z,986.81
2018-09-11T13:22:30.654Z,986.85
2018-09-11T13:23:30.629Z,986.84
2018-09-11T13:24:30.618Z,986.83
2018-09-11T13:25:30.639Z,986.95
2018-09-11T13:26:30.600Z,986.95
2018-09-11T13:27:30.599Z,986.87
2018-09-11T13:28:30.577Z,986.90
2018-09-11T13:29:30.563Z,986.95
2018-09-11T13:30:30.552Z,987.00
2018-09-11T13:31:30.542Z,986.93
2018-09-11T13:32:30.540Z,986.95
2018-09-11T13:33:30.527Z,986.93
2018-09-11T13:34:30.510Z,986.97
2018-09-11T13:35:30.497Z,986.91
2018-09-11T13:36:30.487Z,986.89
2018-09-11T13:37:30.485Z,986.97
2018-09-11T13:38:30.460Z,986.89
2018-09-11T13:39:30.450Z,986.92
2018-09-11T13:40:30.438Z,986.93
2018-09-11T13:41:30.429Z,986.94
2018-09-11T13:42:30.443Z,986.93
2018-09-11T13:43:30.412Z,986.85
2018-09-11T13:44:30.397Z,986.94
2018-09-11T13:45:30.386Z,986.94
2018-09-11T13:46:30.373Z,986.88
2018-09-11T13:47:30.496Z,986.93
2018-09-11T13:48:30.361Z,986.84
2018-09-11T13:49:30.341Z,986.76
2018-09-11T13:50:30.327Z,986.81
2018-09-11T13:51:30.317Z,986.87
2018-09-11T13:52:30.307Z,986.89
2018-09-11T13:53:30.303Z,986.97
2018-09-11T13:54:30.283Z,986.90
2018-09-11T13:55:30.273Z,986.96
2018-09-11T13:56:30.260Z,986.92
2018-09-11T13:57:30.255Z,986.94
2018-09-11T13:58:30.254Z,986.93
2018-09-11T13:59:30.228Z,986.89
2018-09-11T14:00:30.219Z,986.92
2018-09-11T14:01:30.213Z,987.01
2018-09-11T14:02:30.239Z,987.03
2018-09-11T14:03:30.198Z,986.89
2018-09-11T14:04:30.172Z,986.91
2018-09-11T14:05:30.164Z,986.87
2018-09-11T14:06:30.152Z,986.88
2018-09-11T14:07:30.146Z,986.84
2018-09-11T14:08:30.197Z,986.84
2018-09-11T14:09:30.119Z,986.89
2018-09-11T14:10:30.107Z,986.80
2018-09-11T14:11:30.095Z,986.82
2018-09-11T14:12:30.083Z,986.82
2018-09-11T14:13:30.083Z,986.75
2018-09-11T14:14:30.063Z,986.76
2018-09-11T14:15:30.054Z,986.82
2018-09-11T14:16:30.037Z,986.81
2018-09-11T14:17:30.030Z,986.84
2018-09-11T14:18:30.026Z,986.77
2018-09-11T14:19:30.003Z,986.76
2018-09-11T14:20:29.999Z,986.77
2018-09-11T14:21:29.983Z,986.77
2018-09-11T14:22:29.978Z,986.77
2018-09-11T14:23:29.970Z,986.75
2018-09-11T14:24:29.951Z,986.77
2018-09-11T14:25:29.940Z,986.70
2018-09-11T14:26:29.931Z,986.73
2018-09-11T14:27:29.915Z,986.71
2018-09-11T14:28:29.916Z,986.74
2018-09-11T14:29:29.898Z,986.74
2018-09-11T14:30:29.886Z,986.68
2018-09-11T14:31:29.876Z,986.73
2018-09-11T14:32:29.862Z,986.70
2018-09-11T14:33:29.862Z,986.66
2018-09-11T14:34:29.869Z,986.62
2018-09-11T14:35:29.825Z,986.63
2018-09-11T14:36:29.814Z,986.55
2018-09-11T14:37:29.805Z,986.56
2018-09-11T14:38:29.805Z,986.54
2018-09-11T14:39:29.786Z,986.53
2018-09-11T14:40:29.770Z,986.49
2018-09-11T14:41:29.767Z,986.45
2018-09-11T14:42:29.754Z,986.46
2018-09-11T14:43:29.750Z,986.53
2018-09-11T14:44:29.728Z,986.56
2018-09-11T14:45:29.715Z,986.51
2018-09-11T14:46:29.836Z,986.53
2018-09-11T14:47:29.703Z,986.51
2018-09-11T14:48:29.696Z,986.50
2018-09-11T14:49:29.671Z,986.51
2018-09-11T14:50:29.660Z,986.48
2018-09-11T14:51:29.649Z,986.52
2018-09-11T14:52:29.677Z,986.51
2018-09-11T14:53:29.636Z,986.56
2018-09-11T14:54:29.616Z,986.50
2018-09-11T14:55:29.605Z,986.52
2018-09-11T14:56:29.591Z,986.55
2018-09-11T14:57:29.696Z,986.48
2018-09-11T14:58:29.580Z,986.47
2018-09-11T14:59:29.558Z,986.48
2018-09-11T15:00:29.549Z,986.45
2018-09-11T15:01:29.539Z,986.36
2018-09-11T15:02:29.526Z,986.46
2018-09-11T15:03:29.528Z,986.45
2018-09-11T15:04:29.505Z,986.38
2018-09-11T15:05:29.492Z,986.46
2018-09-11T15:06:29.483Z,986.43
2018-09-11T15:07:29.470Z,986.44
2018-09-11T15:08:29.472Z,986.46
2018-09-11T15:09:29.447Z,986.40
2018-09-11T15:10:29.439Z,986.37
2018-09-11T15:11:29.426Z,986.34
2018-09-11T15:12:29.415Z,986.31
2018-09-11T15:13:29.413Z,986.47
2018-09-11T15:14:29.392Z,986.53
2018-09-11T15:15:29.380Z,986.49
2018-09-11T15:16:29.375Z,986.48
2018-09-11T15:17:29.360Z,986.55
2018-09-11T15:18:29.357Z,986.53
2018-09-11T15:19:29.339Z,986.49
2018-09-11T15:20:29.324Z,986.50
2018-09-11T15:21:29.317Z,986.46
2018-09-11T15:22:29.365Z,986.49
2018-09-11T15:23:29.307Z,986.51
2018-09-11T15:24:29.287Z,986.52
2018-09-11T15:25:29.269Z,986.55
2018-09-11T15:26:29.258Z,986.50
2018-09-11T15:27:29.245Z,986.55
2018-09-11T15:28:29.248Z,986.54
2018-09-11T15:29:29.225Z,986.54
2018-09-11T15:30:29.215Z,986.56
2018-09-11T15:31:29.201Z,986.52
2018-09-11T15:32:29.193Z,986.52
2018-09-11T15:33:29.192Z,986.47
2018-09-11T15:34:29.169Z,986.49
2018-09-11T15:35:29.157Z,986.45
2018-09-11T15:36:29.150Z,986.48
2018-09-11T15:37:29.142Z,986.46
2018-09-11T15:38:29.133Z,986.50
2018-09-11T15:39:29.114Z,986.49
2018-09-11T15:40:29.103Z,986.46
2018-09-11T15:41:29.092Z,986.48
2018-09-11T15:42:29.082Z,986.48
2018-09-11T15:43:29.079Z,986.49
2018-09-11T15:44:29.062Z,986.50
2018-09-11T15:45:29.048Z,986.45
2018-09-11T15:46:29.036Z,986.47
2018-09-11T15:47:29.025Z,986.49
2018-09-11T15:48:29.039Z,986.47
2018-09-11T15:49:29.001Z,986.51
2018-09-11T15:50:28.992Z,986.53
2018-09-11T15:51:28.978Z,986.47
2018-09-11T15:52:28.972Z,986.37
2018-09-11T15:53:28.958Z,986.43
2018-09-11T15:54:28.959Z,986.45
2018-09-11T15:55:28.935Z,986.41
2018-09-11T15:56:28.922Z,986.42
2018-09-11T15:57:28.914Z,986.41
2018-09-11T15:58:28.901Z,986.39
2018-09-11T15:59:28.905Z,986.33
2018-09-11T16:00:28.879Z,986.37
2018-09-11T16:01:28.868Z,986.39
2018-09-11T16:02:28.857Z,986.40
2018-09-11T16:03:28.846Z,986.35
2018-09-11T16:04:28.845Z,986.42
2018-09-11T16:05:28.822Z,986.42
2018-09-11T16:06:28.814Z,986.42
2018-09-11T16:07:28.807Z,986.43
2018-09-11T16:08:28.789Z,986.41
2018-09-11T16:09:28.792Z,986.38
2018-09-11T16:10:28.775Z,986.36
2018-09-11T16:11:28.758Z,986.36
2018-09-11T16:12:28.747Z,986.40
2018-09-11T16:13:28.735Z,986.42
2018-09-11T16:14:28.733Z,986.35
2018-09-11T16:15:28.713Z,986.36
2018-09-11T16:16:28.702Z,986.33
2018-09-11T16:17:28.688Z,986.32
2018-09-11T16:18:28.683Z,986.37
2018-09-11T16:19:28.680Z,986.25
2018-09-11T16:20:28.656Z,986.32
2018-09-11T16:21:28.644Z,986.27
2018-09-11T16:22:28.633Z,986.20
2018-09-11T16:23:28.634Z,986.25
2018-09-11T16:24:28.624Z,986.24
2018-09-11T16:25:28.602Z,986.23
2018-09-11T16:26:28.589Z,986.24
2018-09-11T16:27:28.579Z,986.24
2018-09-11T16:28:28.569Z,986.26